sensor_id;sensor_type;location;lat;lon;timestamp;P1;durP1;ratioP1;P2;durP2;ratioP2
2712;SDS011;1366;47.988;7.856;2022-10-31T05:01:17;432.20;;;354.17;;
2712;SDS011;1366;47.988;7.856;2022-10-31T05:03:43;442.27;;;352.53;;
2712;SDS011;1366;47.988;7.856;2022-10-31T05:06:09;419.57;;;332.87;;
2712;SDS011;1366;47.988;7.856;2022-10-31T05:08:35;416.87;;;341.30;;
2712;SDS011;1366;47.988;7.856;2022-10-31T05:11:01;420.70;;;351.33;;
2712;SDS011;1366;47.988;7.856;2022-10-31T05:13:28;429.20;;;343.23;;
2712;SDS011;1366;47.988;7.856;2022-10-31T05:15:54;496.43;;;432.33;;
2712;SDS011;1366;47.988;7.856;2022-10-31T05:18:20;428.20;;;342.83;;
2712;SDS011;1366;47.988;7.856;2022-10-31T05:20:46;428.17;;;342.20;;
2712;SDS011;1366;47.988;7.856;2022-10-31T05:23:12;437.37;;;337.73;;
2712;SDS011;1366;47.988;7.856;2022-10-31T05:25:39;423.17;;;343.63;;
2712;SDS011;1366;47.988;7.856;2022-10-31T05:28:05;436.60;;;341.67;;
2712;SDS011;1366;47.988;7.856;2022-10-31T05:30:31;429.63;;;325.30;;
2712;SDS011;1366;47.988;7.856;2022-10-31T05:32:58;441.43;;;342.90;;
2712;SDS011;1366;47.988;7.856;2022-10-31T05:35:25;448.10;;;336.47;;
2712;SDS011;1366;47.988;7.856;2022-10-31T05:37:52;447.03;;;336.57;;
2712;SDS011;1366;47.988;7.856;2022-10-31T05:40:18;459.13;;;338.47;;
2712;SDS011;1366;47.988;7.856;2022-10-31T05:42:45;442.40;;;338.63;;
2712;SDS011;1366;47.988;7.856;2022-10-31T05:45:13;442.43;;;329.83;;
2712;SDS011;1366;47.988;7.856;2022-10-31T05:47:39;425.83;;;335.87;;
2712;SDS011;1366;47.988;7.856;2022-10-31T05:50:06;425.50;;;330.73;;
2712;SDS011;1366;47.988;7.856;2022-10-31T05:52:32;436.27;;;329.80;;
2712;SDS011;1366;47.988;7.856;2022-10-31T05:54:58;445.00;;;333.60;;
2712;SDS011;1366;47.988;7.856;2022-10-31T05:57:24;439.33;;;335.83;;
2712;SDS011;1366;47.988;7.856;2022-10-31T05:59:51;435.13;;;330.43;;
2712;SDS011;1366;47.988;7.856;2022-10-31T06:02:18;441.13;;;332.43;;
2712;SDS011;1366;47.988;7.856;2022-10-31T06:04:44;441.63;;;318.73;;
2712;SDS011;1366;47.988;7.856;2022-10-31T06:07:10;446.63;;;328.53;;
2712;SDS011;1366;47.988;7.856;2022-10-31T06:09:36;432.40;;;316.63;;
2712;SDS011;1366;47.988;7.856;2022-10-31T06:12:02;447.27;;;328.10;;
2712;SDS011;1366;47.988;7.856;2022-10-31T06:14:28;452.63;;;329.03;;
2712;SDS011;1366;47.988;7.856;2022-10-31T06:16:55;456.03;;;329.33;;
2712;SDS011;1366;47.988;7.856;2022-10-31T06:19:21;447.20;;;320.13;;
2712;SDS011;1366;47.988;7.856;2022-10-31T06:21:47;455.57;;;333.33;;
2712;SDS011;1366;47.988;7.856;2022-10-31T06:24:13;459.07;;;325.60;;
2712;SDS011;1366;47.988;7.856;2022-10-31T06:26:40;445.43;;;323.13;;
2712;SDS011;1366;47.988;7.856;2022-10-31T06:29:06;448.73;;;331.30;;
2712;SDS011;1366;47.988;7.856;2022-10-31T06:31:32;457.67;;;339.10;;
2712;SDS011;1366;47.988;7.856;2022-10-31T06:33:58;456.37;;;334.70;;
2712;SDS011;1366;47.988;7.856;2022-10-31T06:36:24;449.53;;;333.77;;
2712;SDS011;1366;47.988;7.856;2022-10-31T06:38:50;444.53;;;322.10;;
2712;SDS011;1366;47.988;7.856;2022-10-31T06:41:16;461.13;;;331.17;;
2712;SDS011;1366;47.988;7.856;2022-10-31T06:43:42;453.77;;;325.30;;
2712;SDS011;1366;47.988;7.856;2022-10-31T06:46:08;449.93;;;331.63;;
2712;SDS011;1366;47.988;7.856;2022-10-31T06:48:34;447.60;;;327.83;;
2712;SDS011;1366;47.988;7.856;2022-10-31T06:51:00;465.17;;;330.57;;
2712;SDS011;1366;47.988;7.856;2022-10-31T06:53:27;466.83;;;336.93;;
2712;SDS011;1366;47.988;7.856;2022-10-31T06:55:56;443.97;;;332.40;;
2712;SDS011;1366;47.988;7.856;2022-10-31T06:58:22;452.80;;;333.53;;
2712;SDS011;1366;47.988;7.856;2022-10-31T07:00:48;454.23;;;341.33;;
2712;SDS011;1366;47.988;7.856;2022-10-31T07:03:15;454.57;;;337.53;;
2712;SDS011;1366;47.988;7.856;2022-10-31T07:05:41;459.40;;;340.03;;
2712;SDS011;1366;47.988;7.856;2022-10-31T07:08:09;447.43;;;338.17;;
2712;SDS011;1366;47.988;7.856;2022-10-31T07:10:35;461.83;;;356.97;;
2712;SDS011;1366;47.988;7.856;2022-10-31T07:13:03;459.50;;;345.03;;
2712;SDS011;1366;47.988;7.856;2022-10-31T07:15:30;467.23;;;351.10;;
2712;SDS011;1366;47.988;7.856;2022-10-31T07:18:05;465.40;;;345.47;;
2712;SDS011;1366;47.988;7.856;2022-10-31T07:20:31;464.53;;;352.20;;
2712;SDS011;1366;47.988;7.856;2022-10-31T07:22:58;459.67;;;359.07;;
2712;SDS011;1366;47.988;7.856;2022-10-31T07:25:25;451.13;;;355.30;;
2712;SDS011;1366;47.988;7.856;2022-10-31T07:27:51;458.43;;;363.13;;
2712;SDS011;1366;47.988;7.856;2022-10-31T07:30:17;458.90;;;355.10;;
2712;SDS011;1366;47.988;7.856;2022-10-31T07:32:48;470.80;;;355.63;;
2712;SDS011;1366;47.988;7.856;2022-10-31T07:35:16;467.93;;;351.17;;
2712;SDS011;1366;47.988;7.856;2022-10-31T07:37:42;472.20;;;369.57;;
2712;SDS011;1366;47.988;7.856;2022-10-31T07:40:08;465.73;;;367.10;;
2712;SDS011;1366;47.988;7.856;2022-10-31T07:42:35;471.37;;;365.67;;
2712;SDS011;1366;47.988;7.856;2022-10-31T07:45:02;477.07;;;373.33;;
2712;SDS011;1366;47.988;7.856;2022-10-31T07:47:28;474.33;;;383.57;;
2712;SDS011;1366;47.988;7.856;2022-10-31T07:49:54;473.90;;;379.40;;
2712;SDS011;1366;47.988;7.856;2022-10-31T07:52:20;466.70;;;364.50;;
2712;SDS011;1366;47.988;7.856;2022-10-31T07:54:46;478.57;;;380.03;;
2712;SDS011;1366;47.988;7.856;2022-10-31T07:57:12;475.97;;;374.80;;
2712;SDS011;1366;47.988;7.856;2022-10-31T07:59:38;473.50;;;379.13;;
2712;SDS011;1366;47.988;7.856;2022-10-31T08:02:04;462.87;;;380.13;;
2712;SDS011;1366;47.988;7.856;2022-10-31T08:04:30;463.07;;;365.43;;
2712;SDS011;1366;47.988;7.856;2022-10-31T08:06:56;392.23;;;353.47;;
2712;SDS011;1366;47.988;7.856;2022-10-31T08:09:22;374.07;;;338.70;;
2712;SDS011;1366;47.988;7.856;2022-10-31T08:11:48;485.23;;;380.33;;
2712;SDS011;1366;47.988;7.856;2022-10-31T08:14:14;447.10;;;327.60;;
2712;SDS011;1366;47.988;7.856;2022-10-31T08:16:40;6.40;;;4.20;;
2712;SDS011;1366;47.988;7.856;2022-10-31T08:19:06;4.87;;;4.07;;
2712;SDS011;1366;47.988;7.856;2022-10-31T08:21:32;4.33;;;3.37;;
2712;SDS011;1366;47.988;7.856;2022-10-31T08:23:59;7.67;;;3.73;;
2712;SDS011;1366;47.988;7.856;2022-10-31T08:26:25;4.40;;;3.80;;
2712;SDS011;1366;47.988;7.856;2022-10-31T08:28:51;4.80;;;3.60;;
2712;SDS011;1366;47.988;7.856;2022-10-31T08:31:19;4.70;;;3.90;;
2712;SDS011;1366;47.988;7.856;2022-10-31T08:33:45;4.80;;;4.00;;
2712;SDS011;1366;47.988;7.856;2022-10-31T08:36:11;4.00;;;3.70;;
2712;SDS011;1366;47.988;7.856;2022-10-31T08:38:37;5.77;;;3.50;;
2712;SDS011;1366;47.988;7.856;2022-10-31T08:41:03;3.70;;;3.40;;
2712;SDS011;1366;47.988;7.856;2022-10-31T08:43:29;4.90;;;4.30;;
2712;SDS011;1366;47.988;7.856;2022-10-31T08:45:56;4.57;;;4.17;;
2712;SDS011;1366;47.988;7.856;2022-10-31T08:48:22;5.23;;;3.83;;
2712;SDS011;1366;47.988;7.856;2022-10-31T08:50:48;3.80;;;3.50;;
2712;SDS011;1366;47.988;7.856;2022-10-31T08:53:17;7.60;;;5.13;;
2712;SDS011;1366;47.988;7.856;2022-10-31T08:55:44;8.47;;;4.37;;
2712;SDS011;1366;47.988;7.856;2022-10-31T08:58:12;5.50;;;4.20;;
2712;SDS011;1366;47.988;7.856;2022-10-31T09:00:38;4.97;;;4.47;;
2712;SDS011;1366;47.988;7.856;2022-10-31T09:03:06;4.50;;;4.10;;
2712;SDS011;1366;47.988;7.856;2022-10-31T09:05:32;4.37;;;3.70;;
2712;SDS011;1366;47.988;7.856;2022-10-31T09:07:59;6.13;;;4.17;;
2712;SDS011;1366;47.988;7.856;2022-10-31T09:10:26;4.70;;;4.30;;
2712;SDS011;1366;47.988;7.856;2022-10-31T09:13:02;6.37;;;4.33;;
2712;SDS011;1366;47.988;7.856;2022-10-31T09:15:31;7.13;;;4.43;;
2712;SDS011;1366;47.988;7.856;2022-10-31T09:17:57;5.23;;;4.23;;
2712;SDS011;1366;47.988;7.856;2022-10-31T09:20:23;8.83;;;5.00;;
2712;SDS011;1366;47.988;7.856;2022-10-31T09:22:56;6.07;;;4.17;;
2712;SDS011;1366;47.988;7.856;2022-10-31T09:25:23;11.93;;;4.50;;
2712;SDS011;1366;47.988;7.856;2022-10-31T09:27:49;6.43;;;4.50;;
2712;SDS011;1366;47.988;7.856;2022-10-31T09:30:15;5.27;;;4.10;;
2712;SDS011;1366;47.988;7.856;2022-10-31T09:32:41;9.20;;;5.30;;
2712;SDS011;1366;47.988;7.856;2022-10-31T09:35:07;6.03;;;4.00;;
2712;SDS011;1366;47.988;7.856;2022-10-31T09:37:33;6.33;;;4.43;;
2712;SDS011;1366;47.988;7.856;2022-10-31T09:39:59;7.87;;;4.63;;
2712;SDS011;1366;47.988;7.856;2022-10-31T09:42:38;5.03;;;4.40;;
2712;SDS011;1366;47.988;7.856;2022-10-31T09:45:10;6.87;;;4.40;;
2712;SDS011;1366;47.988;7.856;2022-10-31T09:47:44;4.20;;;3.80;;
2712;SDS011;1366;47.988;7.856;2022-10-31T09:50:18;7.80;;;4.90;;
2712;SDS011;1366;47.988;7.856;2022-10-31T09:52:58;7.60;;;4.23;;
2712;SDS011;1366;47.988;7.856;2022-10-31T09:55:35;4.90;;;4.00;;
2712;SDS011;1366;47.988;7.856;2022-10-31T09:58:01;11.37;;;6.70;;
2712;SDS011;1366;47.988;7.856;2022-10-31T10:00:28;9.00;;;6.70;;
2712;SDS011;1366;47.988;7.856;2022-10-31T10:03:09;7.90;;;7.10;;
2712;SDS011;1366;47.988;7.856;2022-10-31T10:05:39;9.27;;;8.20;;
2712;SDS011;1366;47.988;7.856;2022-10-31T10:13:10;9.70;;;7.90;;
2712;SDS011;1366;47.988;7.856;2022-10-31T10:18:12;8.57;;;7.60;;
2712;SDS011;1366;47.988;7.856;2022-10-31T10:20:56;9.53;;;7.40;;
2712;SDS011;1366;47.988;7.856;2022-10-31T10:28:49;8.37;;;7.33;;
2712;SDS011;1366;47.988;7.856;2022-10-31T10:31:20;8.60;;;6.93;;
2712;SDS011;1366;47.988;7.856;2022-10-31T10:34:02;6.77;;;6.17;;
2712;SDS011;1366;47.988;7.856;2022-10-31T10:39:11;9.37;;;7.70;;
2712;SDS011;1366;47.988;7.856;2022-10-31T10:41:40;9.07;;;7.13;;
2712;SDS011;1366;47.988;7.856;2022-10-31T10:44:08;9.73;;;6.50;;
2712;SDS011;1366;47.988;7.856;2022-10-31T10:46:42;7.90;;;6.80;;
2712;SDS011;1366;47.988;7.856;2022-10-31T10:52:08;13.57;;;7.13;;
2712;SDS011;1366;47.988;7.856;2022-10-31T10:54:41;9.70;;;7.20;;
2712;SDS011;1366;47.988;7.856;2022-10-31T10:59:34;8.20;;;6.90;;
2712;SDS011;1366;47.988;7.856;2022-10-31T11:02:00;14.10;;;7.23;;
2712;SDS011;1366;47.988;7.856;2022-10-31T11:04:29;10.67;;;7.37;;
2712;SDS011;1366;47.988;7.856;2022-10-31T11:06:59;11.63;;;7.60;;
2712;SDS011;1366;47.988;7.856;2022-10-31T11:09:25;8.43;;;7.60;;
2712;SDS011;1366;47.988;7.856;2022-10-31T11:11:51;8.80;;;7.87;;
2712;SDS011;1366;47.988;7.856;2022-10-31T11:14:18;8.50;;;7.60;;
2712;SDS011;1366;47.988;7.856;2022-10-31T11:16:45;9.33;;;7.47;;
2712;SDS011;1366;47.988;7.856;2022-10-31T11:21:41;10.17;;;7.00;;
2712;SDS011;1366;47.988;7.856;2022-10-31T11:26:35;4.77;;;4.37;;
2712;SDS011;1366;47.988;7.856;2022-10-31T11:29:03;7.60;;;4.40;;
2712;SDS011;1366;47.988;7.856;2022-10-31T11:31:30;6.70;;;5.17;;
2712;SDS011;1366;47.988;7.856;2022-10-31T11:33:58;6.47;;;4.90;;
2712;SDS011;1366;47.988;7.856;2022-10-31T11:36:26;9.13;;;5.50;;
2712;SDS011;1366;47.988;7.856;2022-10-31T11:38:52;4.53;;;4.13;;
2712;SDS011;1366;47.988;7.856;2022-10-31T11:41:24;5.10;;;4.70;;
2712;SDS011;1366;47.988;7.856;2022-10-31T11:46:38;7.80;;;5.87;;
2712;SDS011;1366;47.988;7.856;2022-10-31T11:49:04;5.43;;;4.93;;
2712;SDS011;1366;47.988;7.856;2022-10-31T11:51:33;6.70;;;5.07;;
2712;SDS011;1366;47.988;7.856;2022-10-31T11:53:59;5.73;;;5.20;;
2712;SDS011;1366;47.988;7.856;2022-10-31T11:56:27;7.47;;;5.30;;
2712;SDS011;1366;47.988;7.856;2022-10-31T11:59:02;6.07;;;5.57;;
2712;SDS011;1366;47.988;7.856;2022-10-31T12:01:30;6.93;;;4.60;;
2712;SDS011;1366;47.988;7.856;2022-10-31T12:06:30;4.93;;;4.43;;
2712;SDS011;1366;47.988;7.856;2022-10-31T12:08:57;6.00;;;5.00;;
2712;SDS011;1366;47.988;7.856;2022-10-31T12:16:48;5.80;;;5.20;;
2712;SDS011;1366;47.988;7.856;2022-10-31T12:34:30;7.03;;;5.20;;
2712;SDS011;1366;47.988;7.856;2022-10-31T12:37:02;10.23;;;7.17;;
2712;SDS011;1366;47.988;7.856;2022-10-31T12:45:18;12.50;;;7.97;;
2712;SDS011;1366;47.988;7.856;2022-10-31T12:47:52;9.60;;;7.30;;
2712;SDS011;1366;47.988;7.856;2022-10-31T12:57:43;7.83;;;6.47;;
2712;SDS011;1366;47.988;7.856;2022-10-31T13:00:14;10.20;;;6.90;;
2712;SDS011;1366;47.988;7.856;2022-10-31T13:13:02;12.23;;;8.27;;
2712;SDS011;1366;47.988;7.856;2022-10-31T13:15:32;10.87;;;6.90;;
2712;SDS011;1366;47.988;7.856;2022-10-31T13:18:01;6.73;;;5.97;;
2712;SDS011;1366;47.988;7.856;2022-10-31T13:20:31;8.80;;;7.10;;
2712;SDS011;1366;47.988;7.856;2022-10-31T13:25:38;8.70;;;7.00;;
2712;SDS011;1366;47.988;7.856;2022-10-31T13:28:11;7.37;;;6.43;;
2712;SDS011;1366;47.988;7.856;2022-10-31T13:30:39;8.80;;;6.43;;
2712;SDS011;1366;47.988;7.856;2022-10-31T13:38:08;9.10;;;5.73;;
2712;SDS011;1366;47.988;7.856;2022-10-31T13:49:00;10.10;;;6.43;;
2712;SDS011;1366;47.988;7.856;2022-10-31T13:51:27;8.60;;;6.90;;
2712;SDS011;1366;47.988;7.856;2022-10-31T13:56:26;8.47;;;6.87;;
2712;SDS011;1366;47.988;7.856;2022-10-31T13:59:15;10.10;;;6.90;;
2712;SDS011;1366;47.988;7.856;2022-10-31T14:02:00;9.00;;;6.70;;
2712;SDS011;1366;47.988;7.856;2022-10-31T14:04:37;7.43;;;6.50;;
2712;SDS011;1366;47.988;7.856;2022-10-31T14:09:31;7.30;;;6.50;;
2712;SDS011;1366;47.988;7.856;2022-10-31T14:11:59;9.47;;;7.07;;
2712;SDS011;1366;47.988;7.856;2022-10-31T14:14:29;7.97;;;7.17;;
2712;SDS011;1366;47.988;7.856;2022-10-31T14:16:57;13.90;;;6.80;;
2712;SDS011;1366;47.988;7.856;2022-10-31T14:19:23;10.37;;;6.30;;
2712;SDS011;1366;47.988;7.856;2022-10-31T14:21:50;9.30;;;6.50;;
2712;SDS011;1366;47.988;7.856;2022-10-31T14:26:55;7.43;;;6.20;;
2712;SDS011;1366;47.988;7.856;2022-10-31T14:29:23;6.70;;;6.10;;
2712;SDS011;1366;47.988;7.856;2022-10-31T14:31:54;7.80;;;6.30;;
2712;SDS011;1366;47.988;7.856;2022-10-31T14:34:28;9.00;;;6.97;;
2712;SDS011;1366;47.988;7.856;2022-10-31T14:37:07;7.03;;;6.33;;
2712;SDS011;1366;47.988;7.856;2022-10-31T14:52:12;11.73;;;8.10;;
2712;SDS011;1366;47.988;7.856;2022-10-31T14:54:39;9.47;;;7.10;;
2712;SDS011;1366;47.988;7.856;2022-10-31T14:57:07;10.90;;;7.40;;
2712;SDS011;1366;47.988;7.856;2022-10-31T14:59:45;9.70;;;7.30;;
2712;SDS011;1366;47.988;7.856;2022-10-31T15:02:22;9.67;;;6.90;;
2712;SDS011;1366;47.988;7.856;2022-10-31T15:04:50;7.73;;;5.80;;
2712;SDS011;1366;47.988;7.856;2022-10-31T15:07:20;6.47;;;5.83;;
2712;SDS011;1366;47.988;7.856;2022-10-31T15:10:22;7.67;;;6.00;;
2712;SDS011;1366;47.988;7.856;2022-10-31T15:12:40;9.10;;;6.60;;
2712;SDS011;1366;47.988;7.856;2022-10-31T15:15:13;7.53;;;6.83;;
2712;SDS011;1366;47.988;7.856;2022-10-31T15:17:48;8.67;;;7.10;;
2712;SDS011;1366;47.988;7.856;2022-10-31T15:20:57;9.27;;;7.10;;
2712;SDS011;1366;47.988;7.856;2022-10-31T15:23:04;7.37;;;6.63;;
2712;SDS011;1366;47.988;7.856;2022-10-31T15:25:33;8.47;;;7.50;;
2712;SDS011;1366;47.988;7.856;2022-10-31T15:28:00;8.67;;;7.20;;
2712;SDS011;1366;47.988;7.856;2022-10-31T15:30:27;10.33;;;7.67;;
2712;SDS011;1366;47.988;7.856;2022-10-31T15:32:53;7.73;;;6.97;;
2712;SDS011;1366;47.988;7.856;2022-10-31T15:35:23;11.07;;;7.83;;
2712;SDS011;1366;47.988;7.856;2022-10-31T15:37:51;8.87;;;7.33;;
2712;SDS011;1366;47.988;7.856;2022-10-31T15:40:17;8.07;;;7.10;;
2712;SDS011;1366;47.988;7.856;2022-10-31T15:42:46;9.03;;;8.10;;
2712;SDS011;1366;47.988;7.856;2022-10-31T15:47:44;9.53;;;7.20;;
2712;SDS011;1366;47.988;7.856;2022-10-31T15:50:19;8.60;;;7.80;;
2712;SDS011;1366;47.988;7.856;2022-10-31T15:52:46;10.00;;;7.30;;
2712;SDS011;1366;47.988;7.856;2022-10-31T15:55:18;8.83;;;7.70;;
2712;SDS011;1366;47.988;7.856;2022-10-31T15:57:49;10.00;;;7.63;;
2712;SDS011;1366;47.988;7.856;2022-10-31T16:02:48;11.07;;;8.07;;
2712;SDS011;1366;47.988;7.856;2022-10-31T16:05:15;8.53;;;7.53;;
2712;SDS011;1366;47.988;7.856;2022-10-31T16:07:47;12.10;;;8.50;;
2712;SDS011;1366;47.988;7.856;2022-10-31T16:10:26;9.80;;;7.90;;
2712;SDS011;1366;47.988;7.856;2022-10-31T16:12:52;9.93;;;8.80;;
2712;SDS011;1366;47.988;7.856;2022-10-31T16:15:19;9.87;;;8.40;;
2712;SDS011;1366;47.988;7.856;2022-10-31T16:17:47;9.57;;;8.63;;
2712;SDS011;1366;47.988;7.856;2022-10-31T16:20:25;9.30;;;8.30;;
2712;SDS011;1366;47.988;7.856;2022-10-31T16:22:52;11.87;;;9.07;;
2712;SDS011;1366;47.988;7.856;2022-10-31T16:25:26;10.30;;;8.50;;
2712;SDS011;1366;47.988;7.856;2022-10-31T16:27:53;12.80;;;9.30;;
2712;SDS011;1366;47.988;7.856;2022-10-31T16:30:27;11.47;;;9.80;;
2712;SDS011;1366;47.988;7.856;2022-10-31T16:32:57;9.20;;;8.20;;
2712;SDS011;1366;47.988;7.856;2022-10-31T16:35:26;10.07;;;9.13;;
2712;SDS011;1366;47.988;7.856;2022-10-31T16:37:52;10.00;;;8.70;;
2712;SDS011;1366;47.988;7.856;2022-10-31T16:40:19;10.70;;;8.10;;
2712;SDS011;1366;47.988;7.856;2022-10-31T16:42:45;12.47;;;8.90;;
2712;SDS011;1366;47.988;7.856;2022-10-31T16:45:16;9.03;;;8.17;;
2712;SDS011;1366;47.988;7.856;2022-10-31T16:47:42;10.73;;;8.70;;
2712;SDS011;1366;47.988;7.856;2022-10-31T16:50:13;10.67;;;8.87;;
2712;SDS011;1366;47.988;7.856;2022-10-31T16:52:40;9.20;;;8.30;;
2712;SDS011;1366;47.988;7.856;2022-10-31T16:55:09;10.43;;;8.23;;
2712;SDS011;1366;47.988;7.856;2022-10-31T16:57:35;14.80;;;9.07;;
2712;SDS011;1366;47.988;7.856;2022-10-31T17:00:02;10.10;;;8.43;;
2712;SDS011;1366;47.988;7.856;2022-10-31T17:02:28;9.20;;;8.30;;
2712;SDS011;1366;47.988;7.856;2022-10-31T17:04:55;10.03;;;9.03;;
2712;SDS011;1366;47.988;7.856;2022-10-31T17:07:21;12.27;;;9.30;;
2712;SDS011;1366;47.988;7.856;2022-10-31T17:09:47;10.43;;;8.90;;
2712;SDS011;1366;47.988;7.856;2022-10-31T17:12:14;9.70;;;8.80;;
2712;SDS011;1366;47.988;7.856;2022-10-31T17:14:42;11.67;;;10.00;;
2712;SDS011;1366;47.988;7.856;2022-10-31T17:17:10;11.27;;;10.17;;
2712;SDS011;1366;47.988;7.856;2022-10-31T17:19:36;13.07;;;10.90;;
2712;SDS011;1366;47.988;7.856;2022-10-31T17:22:02;10.67;;;9.57;;
2712;SDS011;1366;47.988;7.856;2022-10-31T17:24:28;10.47;;;9.27;;
2712;SDS011;1366;47.988;7.856;2022-10-31T17:26:54;12.30;;;11.00;;
2712;SDS011;1366;47.988;7.856;2022-10-31T17:29:20;13.17;;;9.27;;
2712;SDS011;1366;47.988;7.856;2022-10-31T17:31:46;9.80;;;8.77;;
2712;SDS011;1366;47.988;7.856;2022-10-31T17:34:13;10.40;;;9.30;;
2712;SDS011;1366;47.988;7.856;2022-10-31T17:36:39;10.83;;;9.77;;
2712;SDS011;1366;47.988;7.856;2022-10-31T17:39:05;10.87;;;9.10;;
2712;SDS011;1366;47.988;7.856;2022-10-31T17:41:33;10.10;;;9.10;;
2712;SDS011;1366;47.988;7.856;2022-10-31T17:43:59;12.70;;;10.87;;
2712;SDS011;1366;47.988;7.856;2022-10-31T17:46:26;12.53;;;10.60;;
2712;SDS011;1366;47.988;7.856;2022-10-31T17:48:52;12.60;;;9.60;;
2712;SDS011;1366;47.988;7.856;2022-10-31T17:51:18;11.40;;;10.30;;
2712;SDS011;1366;47.988;7.856;2022-10-31T17:53:44;12.43;;;10.00;;
2712;SDS011;1366;47.988;7.856;2022-10-31T17:56:11;11.73;;;10.00;;
2712;SDS011;1366;47.988;7.856;2022-10-31T17:58:37;13.90;;;10.27;;
2712;SDS011;1366;47.988;7.856;2022-10-31T18:01:11;14.83;;;11.40;;
2712;SDS011;1366;47.988;7.856;2022-10-31T18:03:37;10.33;;;9.37;;
2712;SDS011;1366;47.988;7.856;2022-10-31T18:06:04;10.93;;;9.73;;
2712;SDS011;1366;47.988;7.856;2022-10-31T18:08:31;12.13;;;10.80;;
2712;SDS011;1366;47.988;7.856;2022-10-31T18:10:57;14.30;;;11.40;;
2712;SDS011;1366;47.988;7.856;2022-10-31T18:13:24;11.90;;;10.77;;
2712;SDS011;1366;47.988;7.856;2022-10-31T18:15:51;12.13;;;10.30;;
2712;SDS011;1366;47.988;7.856;2022-10-31T18:18:17;12.30;;;10.53;;
2712;SDS011;1366;47.988;7.856;2022-10-31T18:20:43;11.53;;;10.23;;
2712;SDS011;1366;47.988;7.856;2022-10-31T18:23:09;12.83;;;10.60;;
2712;SDS011;1366;47.988;7.856;2022-10-31T18:25:35;12.23;;;10.00;;
2712;SDS011;1366;47.988;7.856;2022-10-31T18:28:07;12.20;;;10.77;;
2712;SDS011;1366;47.988;7.856;2022-10-31T18:30:33;11.60;;;10.00;;
2712;SDS011;1366;47.988;7.856;2022-10-31T18:33:03;12.23;;;10.53;;
2712;SDS011;1366;47.988;7.856;2022-10-31T18:35:29;12.97;;;11.10;;
2712;SDS011;1366;47.988;7.856;2022-10-31T18:37:55;11.20;;;10.10;;
2712;SDS011;1366;47.988;7.856;2022-10-31T18:40:21;16.17;;;10.73;;
2712;SDS011;1366;47.988;7.856;2022-10-31T18:42:47;13.30;;;11.10;;
2712;SDS011;1366;47.988;7.856;2022-10-31T18:45:13;11.17;;;9.67;;
2712;SDS011;1366;47.988;7.856;2022-10-31T18:47:39;12.10;;;10.57;;
2712;SDS011;1366;47.988;7.856;2022-10-31T18:50:05;16.13;;;10.77;;
2712;SDS011;1366;47.988;7.856;2022-10-31T18:52:31;12.90;;;11.03;;
2712;SDS011;1366;47.988;7.856;2022-10-31T18:54:58;10.60;;;9.57;;
2712;SDS011;1366;47.988;7.856;2022-10-31T18:57:24;10.93;;;9.80;;
2712;SDS011;1366;47.988;7.856;2022-10-31T18:59:51;12.23;;;9.60;;
2712;SDS011;1366;47.988;7.856;2022-10-31T19:02:17;12.07;;;8.70;;
2712;SDS011;1366;47.988;7.856;2022-10-31T19:04:43;12.30;;;9.63;;
2712;SDS011;1366;47.988;7.856;2022-10-31T19:07:10;12.40;;;9.70;;
2712;SDS011;1366;47.988;7.856;2022-10-31T19:09:36;10.83;;;9.63;;
2712;SDS011;1366;47.988;7.856;2022-10-31T19:12:02;10.70;;;9.63;;
2712;SDS011;1366;47.988;7.856;2022-10-31T19:14:28;10.80;;;9.50;;
2712;SDS011;1366;47.988;7.856;2022-10-31T19:16:54;11.40;;;9.80;;
2712;SDS011;1366;47.988;7.856;2022-10-31T19:19:20;10.73;;;9.50;;
2712;SDS011;1366;47.988;7.856;2022-10-31T19:21:46;10.47;;;8.73;;
2712;SDS011;1366;47.988;7.856;2022-10-31T19:24:12;9.90;;;8.97;;
2712;SDS011;1366;47.988;7.856;2022-10-31T19:26:38;9.50;;;8.70;;
2712;SDS011;1366;47.988;7.856;2022-10-31T19:29:04;10.70;;;9.67;;
2712;SDS011;1366;47.988;7.856;2022-10-31T19:31:30;10.37;;;9.37;;
2712;SDS011;1366;47.988;7.856;2022-10-31T19:33:56;10.20;;;9.20;;
2712;SDS011;1366;47.988;7.856;2022-10-31T19:36:22;9.03;;;8.20;;
2712;SDS011;1366;47.988;7.856;2022-10-31T19:38:49;9.60;;;8.20;;
2712;SDS011;1366;47.988;7.856;2022-10-31T19:41:19;11.17;;;8.90;;
2712;SDS011;1366;47.988;7.856;2022-10-31T19:43:46;15.13;;;9.00;;
2712;SDS011;1366;47.988;7.856;2022-10-31T19:46:13;10.43;;;9.40;;
2712;SDS011;1366;47.988;7.856;2022-10-31T19:48:39;10.93;;;9.53;;
2712;SDS011;1366;47.988;7.856;2022-10-31T19:51:10;10.33;;;8.80;;
2712;SDS011;1366;47.988;7.856;2022-10-31T19:53:36;11.80;;;8.83;;
2712;SDS011;1366;47.988;7.856;2022-10-31T19:56:03;10.63;;;8.70;;
2712;SDS011;1366;47.988;7.856;2022-10-31T19:58:30;10.93;;;8.40;;
2712;SDS011;1366;47.988;7.856;2022-10-31T20:00:57;10.63;;;8.73;;
2712;SDS011;1366;47.988;7.856;2022-10-31T20:03:23;9.10;;;7.97;;
2712;SDS011;1366;47.988;7.856;2022-10-31T20:05:49;9.67;;;8.60;;
2712;SDS011;1366;47.988;7.856;2022-10-31T20:08:16;9.30;;;8.10;;
2712;SDS011;1366;47.988;7.856;2022-10-31T20:10:56;9.20;;;8.20;;
2712;SDS011;1366;47.988;7.856;2022-10-31T20:13:22;11.80;;;8.90;;
2712;SDS011;1366;47.988;7.856;2022-10-31T20:15:49;11.83;;;9.03;;
2712;SDS011;1366;47.988;7.856;2022-10-31T20:18:15;9.13;;;8.13;;
2712;SDS011;1366;47.988;7.856;2022-10-31T20:20:42;9.27;;;8.37;;
2712;SDS011;1366;47.988;7.856;2022-10-31T20:23:08;10.43;;;9.00;;
2712;SDS011;1366;47.988;7.856;2022-10-31T20:25:34;10.87;;;7.90;;
2712;SDS011;1366;47.988;7.856;2022-10-31T20:28:00;12.50;;;8.67;;
2712;SDS011;1366;47.988;7.856;2022-10-31T20:30:26;9.03;;;8.10;;
2712;SDS011;1366;47.988;7.856;2022-10-31T20:32:53;10.33;;;8.00;;
2712;SDS011;1366;47.988;7.856;2022-10-31T20:35:19;10.80;;;8.90;;
2712;SDS011;1366;47.988;7.856;2022-10-31T20:37:45;10.67;;;9.27;;
2712;SDS011;1366;47.988;7.856;2022-10-31T20:40:11;9.70;;;8.80;;
2712;SDS011;1366;47.988;7.856;2022-10-31T20:42:37;9.50;;;8.50;;
2712;SDS011;1366;47.988;7.856;2022-10-31T20:45:04;9.67;;;8.77;;
2712;SDS011;1366;47.988;7.856;2022-10-31T20:47:30;9.60;;;8.20;;
2712;SDS011;1366;47.988;7.856;2022-10-31T20:49:56;10.50;;;7.80;;
2712;SDS011;1366;47.988;7.856;2022-10-31T20:52:22;9.23;;;8.40;;
2712;SDS011;1366;47.988;7.856;2022-10-31T20:54:48;11.20;;;8.80;;
2712;SDS011;1366;47.988;7.856;2022-10-31T20:57:14;10.03;;;7.90;;
2712;SDS011;1366;47.988;7.856;2022-10-31T20:59:40;10.83;;;9.73;;
2712;SDS011;1366;47.988;7.856;2022-10-31T21:02:07;11.13;;;9.50;;
2712;SDS011;1366;47.988;7.856;2022-10-31T21:04:33;8.90;;;8.03;;
2712;SDS011;1366;47.988;7.856;2022-10-31T21:06:59;9.20;;;8.40;;
2712;SDS011;1366;47.988;7.856;2022-10-31T21:09:25;10.63;;;8.00;;
2712;SDS011;1366;47.988;7.856;2022-10-31T21:11:51;11.40;;;9.13;;
2712;SDS011;1366;47.988;7.856;2022-10-31T21:14:17;10.13;;;8.27;;
2712;SDS011;1366;47.988;7.856;2022-10-31T21:16:43;8.20;;;7.50;;
2712;SDS011;1366;47.988;7.856;2022-10-31T21:19:09;9.90;;;7.40;;
2712;SDS011;1366;47.988;7.856;2022-10-31T21:21:37;11.33;;;8.13;;
2712;SDS011;1366;47.988;7.856;2022-10-31T21:24:07;9.50;;;8.47;;
2712;SDS011;1366;47.988;7.856;2022-10-31T21:26:34;8.33;;;7.53;;
2712;SDS011;1366;47.988;7.856;2022-10-31T21:29:01;9.10;;;7.80;;
2712;SDS011;1366;47.988;7.856;2022-10-31T21:31:28;9.93;;;8.70;;
2712;SDS011;1366;47.988;7.856;2022-10-31T21:33:54;11.07;;;8.60;;
2712;SDS011;1366;47.988;7.856;2022-10-31T21:36:20;8.50;;;7.60;;
2712;SDS011;1366;47.988;7.856;2022-10-31T21:38:49;8.33;;;7.37;;
2712;SDS011;1366;47.988;7.856;2022-10-31T21:41:16;8.40;;;7.40;;
2712;SDS011;1366;47.988;7.856;2022-10-31T21:43:43;8.37;;;7.57;;
2712;SDS011;1366;47.988;7.856;2022-10-31T21:46:16;8.50;;;7.27;;
2712;SDS011;1366;47.988;7.856;2022-10-31T21:48:43;9.70;;;8.17;;
2712;SDS011;1366;47.988;7.856;2022-10-31T21:51:10;10.43;;;7.90;;
2712;SDS011;1366;47.988;7.856;2022-10-31T21:53:37;8.43;;;7.60;;
2712;SDS011;1366;47.988;7.856;2022-10-31T21:56:22;10.40;;;7.30;;
2712;SDS011;1366;47.988;7.856;2022-10-31T21:58:48;10.87;;;7.50;;